Aviation Digital Data Service (ADDS)

Output produced by METARs form (1112 UTC 24 April 2017)
found at http://www.aviationweather.gov/adds/metars/
 
TAF SMJP 241000Z 2412/2512 08010KT 9999 SCT015 FEW018CB SCT020 TX31/2417Z TN22/2510Z 
     TEMPO 2414/2421 VRB12G22KT 4000 TSRA 
     FM242300 07004KT 9999 FEW012 SCT025 
     TEMPO 2509/2511 2000 BR